Time;durP1;ratioP1;P1;durP2;ratioP2;P2;SDS_P1;SDS_P2;PMS_P1;PMS_P2;Temp;Humidity;BMP_temperature;BMP_pressure;BME280_temperature;BME280_humidity;BME280_pressure;Samples;Min_cycle;Max_cycle;Signal;HPM_P1;HPM_P2
2021/09/28 00:00:36;;;;;;;0.10;0.10;;;16.60;99.90;;;;;;4976544;28;20033;-77
2021/09/28 00:03:02;;;;;;;0.10;0.10;;;16.50;99.90;;;;;;4976521;28;20061;-77
2021/09/28 00:05:28;;;;;;;2.38;0.82;;;16.50;99.90;;;;;;4993638;28;20026;-77
2021/09/28 00:07:54;;;;;;;0.20;0.20;;;16.50;99.90;;;;;;4993591;28;20557;-77
2021/09/28 00:10:20;;;;;;;3.60;0.38;;;16.60;99.90;;;;;;4993734;28;20022;-77
2021/09/28 00:12:46;;;;;;;0.10;0.10;;;16.60;99.90;;;;;;4976217;28;20022;-78
2021/09/28 00:15:13;;;;;;;0.10;0.10;;;16.60;99.90;;;;;;4975963;28;20026;-78
2021/09/28 00:17:39;;;;;;;0.10;0.10;;;16.60;99.90;;;;;;4993502;28;20448;-77
2021/09/28 00:20:07;;;;;;;0.10;0.10;;;16.60;99.90;;;;;;4993531;28;20072;-77
2021/09/28 00:22:33;;;;;;;0.10;0.10;;;16.40;99.90;;;;;;4993304;28;20034;-78
2021/09/28 00:24:59;;;;;;;0.95;0.95;;;16.30;99.90;;;;;;4975994;28;20273;-77
2021/09/28 00:27:25;;;;;;;0.10;0.10;;;16.20;99.90;;;;;;4975915;28;20133;-77
2021/09/28 00:29:51;;;;;;;1.95;0.57;;;16.20;99.90;;;;;;4993373;28;20018;-77
2021/09/28 00:32:16;;;;;;;0.80;0.30;;;16.20;99.90;;;;;;4975870;28;20033;-77
2021/09/28 00:34:44;;;;;;;0.10;0.10;;;16.20;99.90;;;;;;4993037;28;20026;-77
2021/09/28 00:37:10;;;;;;;0.20;0.20;;;16.10;99.90;;;;;;4993080;28;20019;-78
2021/09/28 00:39:36;;;;;;;0.10;0.10;;;16.20;99.90;;;;;;4993188;28;20027;-77
2021/09/28 00:42:02;;;;;;;0.20;0.20;;;16.20;99.90;;;;;;4975771;28;20036;-77
2021/09/28 00:44:36;;;;;;;0.10;0.10;;;16.20;99.90;;;;;;4992969;28;20061;-77
2021/09/28 00:47:02;;;;;;;0.10;0.10;;;16.10;99.90;;;;;;4993020;28;20059;-78
2021/09/28 00:49:27;;;;;;;0.10;0.10;;;16.00;99.90;;;;;;4975514;28;20453;-78
2021/09/28 00:51:53;;;;;;;0.20;0.20;;;16.00;99.90;;;;;;4975561;28;20065;-77
2021/09/28 00:54:19;;;;;;;0.10;0.10;;;16.00;99.90;;;;;;4975366;28;20033;-78
2021/09/28 00:56:45;;;;;;;0.10;0.10;;;16.00;99.90;;;;;;4992727;28;20026;-78
2021/09/28 00:59:12;;;;;;;0.10;0.10;;;15.90;99.90;;;;;;4992876;28;20049;-77
2021/09/28 01:01:38;;;;;;;0.10;0.10;;;15.80;99.90;;;;;;4992808;28;20104;-78
2021/09/28 01:04:04;;;;;;;0.10;0.10;;;15.80;99.90;;;;;;4975456;28;20493;-77
2021/09/28 01:06:30;;;;;;;0.10;0.10;;;15.90;99.90;;;;;;4975156;28;20062;-77
2021/09/28 01:08:55;;;;;;;0.55;0.55;;;15.80;99.90;;;;;;4992723;28;20065;-77
2021/09/28 01:11:21;;;;;;;0.80;0.63;;;15.80;99.90;;;;;;4992724;28;20035;-77
2021/09/28 01:13:47;;;;;;;0.17;0.17;;;15.90;99.90;;;;;;4975267;28;20029;-77
2021/09/28 01:16:13;;;;;;;0.10;0.10;;;15.90;99.90;;;;;;4975089;28;20504;-78
2021/09/28 01:18:41;;;;;;;0.10;0.10;;;15.90;99.90;;;;;;4975181;28;20054;-78
2021/09/28 01:21:10;;;;;;;0.10;0.10;;;15.90;99.90;;;;;;4975129;28;20022;-77
2021/09/28 01:23:37;;;;;;;0.15;0.15;;;15.90;99.90;;;;;;4975121;28;20022;-78
2021/09/28 01:26:03;;;;;;;1.95;0.75;;;15.80;99.90;;;;;;4975102;28;20106;-77
2021/09/28 01:28:29;;;;;;;0.10;0.10;;;15.80;99.90;;;;;;4992393;28;20035;-78
2021/09/28 01:30:56;;;;;;;1.02;0.70;;;15.80;99.90;;;;;;4992561;28;20437;-77
2021/09/28 01:33:22;;;;;;;0.10;0.10;;;15.60;99.90;;;;;;4975112;28;20032;-77
2021/09/28 01:35:47;;;;;;;0.10;0.10;;;15.50;99.90;;;;;;4962226;28;20030;-78
2021/09/28 01:38:13;;;;;;;0.10;0.10;;;15.50;99.90;;;;;;4962918;28;20086;-77
2021/09/28 01:40:39;;;;;;;0.20;0.20;;;15.50;99.90;;;;;;4978998;28;20478;-78
2021/09/28 01:43:06;;;;;;;1.95;1.08;;;15.40;99.90;;;;;;4996374;28;20023;-78
2021/09/28 01:45:32;;;;;;;0.10;0.10;;;15.40;99.90;;;;;;4996339;28;20034;-77
2021/09/28 01:47:58;;;;;;;0.20;0.20;;;15.50;99.90;;;;;;4996343;28;20026;-78
2021/09/28 01:50:24;;;;;;;0.10;0.10;;;15.60;99.90;;;;;;4996493;28;20034;-77
2021/09/28 01:52:49;;;;;;;0.20;0.20;;;15.70;99.90;;;;;;4979000;28;20053;-77
2021/09/28 01:55:15;;;;;;;0.10;0.10;;;15.60;99.90;;;;;;4978292;28;20390;-78
2021/09/28 01:57:41;;;;;;;0.20;0.20;;;15.80;99.90;;;;;;4978608;28;20031;-78
2021/09/28 02:00:07;;;;;;;0.20;0.20;;;15.80;99.90;;;;;;4978828;28;20029;-78
2021/09/28 02:02:33;;;;;;;1.98;1.27;;;15.80;99.90;;;;;;4996107;28;20027;-78
2021/09/28 02:04:59;;;;;;;0.10;0.10;;;16.00;99.90;;;;;;4978594;28;20393;-77
2021/09/28 02:07:24;;;;;;;0.57;0.47;;;16.00;99.90;;;;;;4978564;28;20386;-77
2021/09/28 02:09:50;;;;;;;0.10;0.10;;;16.00;99.90;;;;;;4978271;28;20036;-77
2021/09/28 02:12:16;;;;;;;0.10;0.10;;;16.00;99.90;;;;;;4978440;28;20057;-77
2021/09/28 02:14:41;;;;;;;0.30;0.30;;;16.10;99.90;;;;;;4978108;28;20029;-77
2021/09/28 02:17:07;;;;;;;0.10;0.10;;;16.10;99.90;;;;;;4995838;28;20069;-78
2021/09/28 02:19:33;;;;;;;0.22;0.22;;;16.10;99.90;;;;;;4995795;28;20033;-78
2021/09/28 02:21:59;;;;;;;0.20;0.20;;;15.90;99.90;;;;;;4978306;28;20479;-78
2021/09/28 02:24:24;;;;;;;0.40;0.40;;;16.00;99.90;;;;;;4978154;28;20088;-78
2021/09/28 02:26:50;;;;;;;0.10;0.10;;;15.90;99.90;;;;;;4962121;28;20363;-77
2021/09/28 02:29:16;;;;;;;0.10;0.10;;;15.90;99.90;;;;;;4995895;28;20041;-77
2021/09/28 02:31:42;;;;;;;0.15;0.15;;;16.00;99.90;;;;;;4995672;28;20433;-76
2021/09/28 02:34:09;;;;;;;0.10;0.10;;;15.90;99.90;;;;;;4995357;28;20486;-77
2021/09/28 02:36:37;;;;;;;0.20;0.20;;;16.00;99.90;;;;;;4995348;28;20109;-78
2021/09/28 02:39:04;;;;;;;0.20;0.20;;;16.10;99.90;;;;;;4961738;28;20030;-78
2021/09/28 02:41:31;;;;;;;0.55;0.55;;;16.20;99.90;;;;;;4995428;28;20026;-78
2021/09/28 02:43:56;;;;;;;0.10;0.10;;;16.20;99.90;;;;;;4977868;28;20045;-78
2021/09/28 02:46:22;;;;;;;0.20;0.20;;;16.30;99.90;;;;;;4960331;28;20046;-77
2021/09/28 02:48:48;;;;;;;0.10;0.10;;;16.50;99.90;;;;;;4995205;28;20064;-78
2021/09/28 02:51:14;;;;;;;0.10;0.10;;;16.50;99.90;;;;;;4995261;28;20030;-78
2021/09/28 02:53:40;;;;;;;0.10;0.10;;;16.40;99.90;;;;;;4995297;28;20077;-77
2021/09/28 02:56:05;;;;;;;0.10;0.10;;;16.40;99.90;;;;;;4977514;28;20057;-78
2021/09/28 02:58:31;;;;;;;0.13;0.13;;;16.30;99.90;;;;;;4977630;28;20475;-77
2021/09/28 03:00:57;;;;;;;0.10;0.10;;;16.40;99.90;;;;;;4995005;28;20030;-77
2021/09/28 03:03:23;;;;;;;0.10;0.10;;;16.50;99.90;;;;;;4977637;28;20065;-77
2021/09/28 03:05:49;;;;;;;0.22;0.22;;;16.40;99.90;;;;;;4961246;28;20027;-77
2021/09/28 03:08:15;;;;;;;0.10;0.10;;;16.40;99.90;;;;;;4977388;28;20401;-77
2021/09/28 03:10:43;;;;;;;0.10;0.10;;;16.30;99.90;;;;;;4994992;28;20030;-78
2021/09/28 03:13:10;;;;;;;0.10;0.10;;;16.30;99.90;;;;;;4994810;28;20018;-78
2021/09/28 03:15:35;;;;;;;0.10;0.10;;;16.20;99.90;;;;;;4994597;28;20161;-77
2021/09/28 03:18:01;;;;;;;0.43;0.30;;;16.20;99.90;;;;;;4994565;28;20105;-78
2021/09/28 03:20:28;;;;;;;0.10;0.10;;;16.30;99.90;;;;;;4977253;28;20028;-78
2021/09/28 03:22:53;;;;;;;0.10;0.10;;;16.20;99.90;;;;;;4961078;28;20057;-77
2021/09/28 03:25:19;;;;;;;0.20;0.20;;;16.20;99.90;;;;;;4977064;28;20026;-78
2021/09/28 03:27:45;;;;;;;0.32;0.32;;;16.20;99.90;;;;;;4977083;28;20034;-77
2021/09/28 03:30:11;;;;;;;0.20;0.20;;;16.10;99.90;;;;;;4976991;28;20038;-77
2021/09/28 03:32:37;;;;;;;0.10;0.10;;;16.00;99.90;;;;;;4994273;28;20030;-77
2021/09/28 03:35:08;;;;;;;0.10;0.10;;;15.90;99.90;;;;;;4976698;28;20031;-78
2021/09/28 03:37:38;;;;;;;0.10;0.10;;;15.80;99.90;;;;;;4976879;28;20030;-78
2021/09/28 03:40:06;;;;;;;0.15;0.15;;;15.90;99.90;;;;;;4994287;28;20274;-77
2021/09/28 03:42:32;;;;;;;0.77;0.77;;;16.00;99.90;;;;;;4976811;28;20042;-78
2021/09/28 03:44:57;;;;;;;0.13;0.13;;;16.10;99.90;;;;;;4976560;28;20065;-78
2021/09/28 03:47:23;;;;;;;1.90;1.10;;;16.10;99.90;;;;;;4993965;28;20438;-77
2021/09/28 03:49:49;;;;;;;0.43;0.30;;;16.00;99.90;;;;;;4960595;28;20490;-77
2021/09/28 03:52:15;;;;;;;1.17;0.75;;;15.80;99.90;;;;;;4994469;28;20393;-77
2021/09/28 03:54:41;;;;;;;0.52;0.50;;;15.80;99.90;;;;;;4993695;28;20057;-77
2021/09/28 03:57:07;;;;;;;0.30;0.30;;;15.70;99.90;;;;;;4993477;28;20054;-76
2021/09/28 03:59:32;;;;;;;0.10;0.10;;;15.60;99.90;;;;;;4976439;28;20022;-76
2021/09/28 04:01:58;;;;;;;0.32;0.32;;;15.60;99.90;;;;;;4993761;28;20165;-77
2021/09/28 04:04:24;;;;;;;0.10;0.10;;;15.70;99.90;;;;;;4976306;28;20038;-76
2021/09/28 04:06:49;;;;;;;0.10;0.10;;;15.80;99.90;;;;;;4993686;28;20027;-76
2021/09/28 04:09:15;;;;;;;0.10;0.10;;;15.80;99.90;;;;;;4976326;28;20033;-76
2021/09/28 04:11:41;;;;;;;0.30;0.30;;;15.90;99.90;;;;;;4993722;28;20486;-77
2021/09/28 04:14:09;;;;;;;0.10;0.10;;;15.80;99.90;;;;;;4976033;28;20401;-76
2021/09/28 04:16:36;;;;;;;0.32;0.32;;;15.80;99.90;;;;;;4976011;28;20520;-77
2021/09/28 04:19:02;;;;;;;0.10;0.10;;;15.70;99.90;;;;;;4976053;28;20030;-76
2021/09/28 04:21:28;;;;;;;0.30;0.30;;;15.70;99.90;;;;;;4960164;28;20022;-77
2021/09/28 04:23:54;;;;;;;1.13;1.02;;;15.80;99.90;;;;;;4993323;28;20029;-76
2021/09/28 04:26:20;;;;;;;0.20;0.20;;;15.90;99.90;;;;;;4993171;28;20093;-76
2021/09/28 04:28:47;;;;;;;0.17;0.17;;;15.80;99.90;;;;;;4975569;28;20114;-76
2021/09/28 04:31:15;;;;;;;1.98;1.02;;;15.80;99.90;;;;;;4993284;28;20112;-76
2021/09/28 04:33:41;;;;;;;1.08;1.00;;;15.70;99.90;;;;;;4975680;28;20050;-76
2021/09/28 04:36:07;;;;;;;0.10;0.10;;;15.80;99.90;;;;;;4993014;28;20351;-76
2021/09/28 04:38:32;;;;;;;0.10;0.10;;;15.80;99.90;;;;;;4976049;28;20422;-76
2021/09/28 04:41:00;;;;;;;0.10;0.10;;;15.90;99.90;;;;;;4992991;28;20027;-76
2021/09/28 04:43:26;;;;;;;0.10;0.10;;;16.00;99.90;;;;;;4975619;28;20510;-77
2021/09/28 04:45:52;;;;;;;0.10;0.10;;;16.10;99.90;;;;;;4959332;28;20026;-76
2021/09/28 04:48:18;;;;;;;0.10;0.10;;;16.10;99.90;;;;;;4975403;28;20030;-77
2021/09/28 04:50:46;;;;;;;0.10;0.10;;;16.30;99.90;;;;;;4993000;28;20068;-77
2021/09/28 04:53:13;;;;;;;0.25;0.25;;;16.30;99.90;;;;;;4992721;28;20165;-77
2021/09/28 04:55:39;;;;;;;0.10;0.10;;;16.30;99.90;;;;;;4975279;28;20094;-77
2021/09/28 04:58:05;;;;;;;0.10;0.10;;;16.40;99.90;;;;;;4992708;28;20034;-77
2021/09/28 05:00:31;;;;;;;0.10;0.10;;;16.30;99.90;;;;;;4992719;28;20032;-76
2021/09/28 05:02:57;;;;;;;0.10;0.10;;;16.20;99.90;;;;;;4975253;28;20037;-76
2021/09/28 05:05:23;;;;;;;0.10;0.10;;;16.30;99.90;;;;;;4992562;28;20386;-76
2021/09/28 05:07:49;;;;;;;0.10;0.10;;;16.50;99.90;;;;;;4974966;28;20087;-77
2021/09/28 05:10:15;;;;;;;0.15;0.15;;;16.60;99.90;;;;;;4974480;28;20030;-77
2021/09/28 05:12:41;;;;;;;0.10;0.10;;;16.70;99.90;;;;;;4975336;28;20441;-76
2021/09/28 05:15:08;;;;;;;0.10;0.10;;;16.60;99.90;;;;;;4975010;28;20026;-77
2021/09/28 05:17:35;;;;;;;0.60;0.60;;;16.50;99.90;;;;;;4992598;28;20105;-77
2021/09/28 05:20:03;;;;;;;1.55;1.55;;;16.30;99.90;;;;;;4975489;28;20023;-77
2021/09/28 05:22:29;;;;;;;0.10;0.10;;;16.30;99.90;;;;;;4958801;28;20050;-76
2021/09/28 05:24:55;;;;;;;0.10;0.10;;;16.30;99.90;;;;;;4991191;28;20084;-77
2021/09/28 05:27:20;;;;;;;0.17;0.17;;;16.40;99.90;;;;;;4982223;28;20108;-76
2021/09/28 05:29:46;;;;;;;0.10;0.10;;;16.40;99.90;;;;;;5011674;28;20026;-76
2021/09/28 05:32:12;;;;;;;6.82;1.45;;;16.50;99.90;;;;;;4975775;28;20430;-77
2021/09/28 05:34:38;;;;;;;0.10;0.10;;;16.50;99.90;;;;;;4989618;28;20080;-76
2021/09/28 05:37:04;;;;;;;0.30;0.30;;;16.50;99.90;;;;;;5011917;28;20022;-76
2021/09/28 05:39:30;;;;;;;0.20;0.20;;;16.50;99.90;;;;;;5011798;28;20388;-76
2021/09/28 05:41:55;;;;;;;0.10;0.10;;;16.50;99.90;;;;;;4994139;28;20072;-76
2021/09/28 05:44:21;;;;;;;0.10;0.10;;;16.50;99.90;;;;;;5011721;28;20032;-76
2021/09/28 05:46:47;;;;;;;0.30;0.30;;;16.50;99.90;;;;;;4994344;28;20022;-77
2021/09/28 05:49:13;;;;;;;1.95;0.95;;;16.30;99.90;;;;;;5011738;28;20033;-76
2021/09/28 05:51:54;;;;;;;0.10;0.10;;;16.30;99.90;;;;;;5011882;28;20034;-77
2021/09/28 05:54:21;;;;;;;0.10;0.10;;;16.30;99.90;;;;;;4985017;28;20364;-77
2021/09/28 05:56:48;;;;;;;0.17;0.17;;;16.30;99.90;;;;;;4957983;28;20076;-76
2021/09/28 05:59:13;;;;;;;0.10;0.10;;;16.40;99.90;;;;;;4998670;28;20018;-76
2021/09/28 06:01:39;;;;;;;0.30;0.30;;;16.40;99.90;;;;;;4977869;28;20030;-77
2021/09/28 06:04:05;;;;;;;0.10;0.10;;;16.40;99.90;;;;;;4994235;28;20113;-76
2021/09/28 06:06:31;;;;;;;0.10;0.10;;;16.40;99.90;;;;;;4993880;28;20036;-77
2021/09/28 06:08:57;;;;;;;0.10;0.10;;;16.40;99.90;;;;;;4991365;28;20025;-77
2021/09/28 06:11:23;;;;;;;0.15;0.15;;;16.40;99.90;;;;;;4997655;28;20109;-76
2021/09/28 06:13:50;;;;;;;0.10;0.10;;;16.30;99.90;;;;;;4997181;28;20122;-77
2021/09/28 06:16:17;;;;;;;0.10;0.10;;;16.20;99.90;;;;;;4974469;28;20029;-76
2021/09/28 06:18:43;;;;;;;0.38;0.38;;;16.30;99.90;;;;;;4975613;28;20511;-77
2021/09/28 06:21:08;;;;;;;15.35;8.68;;;16.30;99.90;;;;;;4996266;28;20113;-77
2021/09/28 06:23:34;;;;;;;0.10;0.10;;;16.40;99.90;;;;;;4991110;28;20422;-76
2021/09/28 06:26:02;;;;;;;0.10;0.10;;;16.60;99.90;;;;;;5002395;28;20466;-77
2021/09/28 06:28:28;;;;;;;0.10;0.10;;;16.70;99.90;;;;;;5009885;28;20085;-77
2021/09/28 06:30:54;;;;;;;0.70;0.57;;;16.60;99.90;;;;;;4995719;28;20034;-76
2021/09/28 06:33:20;;;;;;;0.68;0.68;;;16.60;99.90;;;;;;4995046;28;20034;-76
2021/09/28 06:35:45;;;;;;;1.85;1.75;;;16.40;99.90;;;;;;4995145;28;20065;-76
2021/09/28 06:38:11;;;;;;;0.75;0.32;;;16.20;99.90;;;;;;4977788;28;20030;-76
2021/09/28 06:40:37;;;;;;;0.20;0.20;;;16.10;99.90;;;;;;4995210;28;20105;-76
2021/09/28 06:43:03;;;;;;;0.10;0.10;;;15.90;99.90;;;;;;5002275;28;20026;-77
2021/09/28 06:45:29;;;;;;;2.55;2.17;;;15.90;99.90;;;;;;4986890;28;20033;-73
2021/09/28 06:47:55;;;;;;;0.20;0.20;;;15.80;99.90;;;;;;4994889;28;20026;-73
2021/09/28 06:50:21;;;;;;;0.10;0.10;;;15.90;99.90;;;;;;4995045;28;20080;-73
2021/09/28 06:52:47;;;;;;;0.10;0.10;;;16.00;99.90;;;;;;4977619;28;20537;-74
2021/09/28 06:55:14;;;;;;;0.20;0.20;;;16.00;99.90;;;;;;4994582;28;20394;-73
2021/09/28 06:57:40;;;;;;;1.75;1.65;;;16.00;99.90;;;;;;4961099;28;20358;-73
2021/09/28 07:00:07;;;;;;;0.17;0.17;;;16.10;99.90;;;;;;4977409;28;20026;-74
2021/09/28 07:02:33;;;;;;;0.90;0.77;;;16.20;99.90;;;;;;4993308;28;20022;-73
2021/09/28 07:04:59;;;;;;;4.47;0.47;;;16.20;99.90;;;;;;4994227;28;20033;-73
2021/09/28 07:07:27;;;;;;;0.22;0.22;;;16.10;99.90;;;;;;4976912;28;20030;-73
2021/09/28 07:09:53;;;;;;;0.10;0.10;;;16.10;99.90;;;;;;4977369;28;20062;-73
2021/09/28 07:12:19;;;;;;;0.30;0.30;;;16.20;99.90;;;;;;4993189;28;20061;-73
2021/09/28 07:14:44;;;;;;;0.10;0.10;;;16.30;99.90;;;;;;4976346;28;20405;-73
2021/09/28 07:17:10;;;;;;;0.10;0.10;;;16.30;99.90;;;;;;4994328;28;20026;-73
2021/09/28 07:19:36;;;;;;;0.10;0.10;;;16.30;99.90;;;;;;4960885;28;20045;-73
2021/09/28 07:22:03;;;;;;;0.38;0.38;;;16.30;99.90;;;;;;4976649;28;20023;-73
2021/09/28 07:24:28;;;;;;;2.03;0.90;;;16.40;99.90;;;;;;4976732;28;20022;-73
2021/09/28 07:26:54;;;;;;;0.10;0.10;;;16.30;99.90;;;;;;4994099;28;20030;-73
2021/09/28 07:29:20;;;;;;;0.10;0.10;;;16.30;99.90;;;;;;4976576;28;20026;-73
2021/09/28 07:31:46;;;;;;;0.10;0.10;;;16.20;99.90;;;;;;4993527;28;20423;-73
2021/09/28 07:34:11;;;;;;;0.10;0.10;;;16.10;99.90;;;;;;4993917;28;20038;-73
2021/09/28 07:36:37;;;;;;;0.38;0.38;;;16.00;99.90;;;;;;4994115;28;20022;-73
2021/09/28 07:39:05;;;;;;;0.10;0.10;;;15.90;99.90;;;;;;4976657;28;20126;-73
2021/09/28 07:41:30;;;;;;;0.10;0.10;;;15.90;99.90;;;;;;4993808;28;20402;-73
2021/09/28 07:43:56;;;;;;;0.20;0.20;;;15.80;99.90;;;;;;4993758;28;20026;-73
2021/09/28 07:46:22;;;;;;;0.10;0.10;;;15.70;99.90;;;;;;4993694;28;20026;-73
2021/09/28 07:48:48;;;;;;;0.10;0.10;;;15.60;99.90;;;;;;4976243;28;20042;-73
2021/09/28 07:51:15;;;;;;;0.10;0.10;;;15.60;99.90;;;;;;4993517;28;20550;-73
2021/09/28 07:53:41;;;;;;;0.10;0.10;;;15.70;99.90;;;;;;4993947;28;20026;-73
2021/09/28 07:56:07;;;;;;;0.10;0.10;;;15.90;99.90;;;;;;4993210;28;20046;-73
2021/09/28 07:58:34;;;;;;;0.10;0.10;;;16.00;99.90;;;;;;4976180;28;20033;-72
2021/09/28 08:01:00;;;;;;;0.20;0.20;;;15.90;99.90;;;;;;4993337;28;20483;-73
2021/09/28 08:03:26;;;;;;;0.10;0.10;;;15.90;99.90;;;;;;4993359;28;20030;-73
2021/09/28 08:05:51;;;;;;;0.10;0.10;;;16.00;99.90;;;;;;4975963;28;20390;-73
2021/09/28 08:08:17;;;;;;;0.38;0.38;;;16.10;99.90;;;;;;4975981;28;20057;-73
2021/09/28 08:10:43;;;;;;;0.10;0.10;;;16.10;99.90;;;;;;4987090;28;20022;-73
2021/09/28 08:13:10;;;;;;;0.17;0.17;;;16.00;99.90;;;;;;5012993;28;20061;-73
2021/09/28 08:15:36;;;;;;;0.13;0.13;;;16.10;99.90;;;;;;5012472;28;20033;-73
2021/09/28 08:18:03;;;;;;;0.10;0.10;;;16.10;99.90;;;;;;5012672;28;20030;-73
2021/09/28 08:20:29;;;;;;;0.10;0.10;;;16.10;99.90;;;;;;4995410;28;20044;-72
2021/09/28 08:22:57;;;;;;;0.20;0.20;;;16.10;99.90;;;;;;5012777;28;20041;-72
2021/09/28 08:25:33;;;;;;;0.10;0.10;;;16.10;99.90;;;;;;5012391;28;20026;-73
2021/09/28 08:30:43;;;;;;;0.10;0.10;;;15.90;99.90;;;;;;5012718;28;20037;-72
2021/09/28 08:33:09;;;;;;;4.70;0.43;;;16.00;99.90;;;;;;5012611;28;20029;-73
2021/09/28 08:35:35;;;;;;;0.10;0.10;;;16.20;99.90;;;;;;4993926;28;20036;-73
2021/09/28 08:38:01;;;;;;;0.10;0.10;;;16.10;99.90;;;;;;4994206;28;20022;-73
2021/09/28 08:40:26;;;;;;;0.10;0.10;;;16.10;99.90;;;;;;4994201;28;20033;-73
2021/09/28 08:42:55;;;;;;;0.60;0.60;;;16.10;99.90;;;;;;4992115;28;20022;-73
2021/09/28 08:45:22;;;;;;;0.10;0.10;;;16.10;99.90;;;;;;4968869;28;20053;-72
2021/09/28 08:47:48;;;;;;;0.10;0.10;;;16.10;99.90;;;;;;5008746;28;20029;-73
2021/09/28 08:50:19;;;;;;;0.10;0.10;;;16.10;99.90;;;;;;4980613;28;20030;-73
2021/09/28 08:52:48;;;;;;;0.10;0.10;;;16.20;99.90;;;;;;5012851;28;20481;-72
2021/09/28 08:55:14;;;;;;;0.00;0.00;;;16.20;99.90;;;;;;5004691;28;20482;-73
2021/09/28 08:57:41;;;;;;;0.08;0.08;;;16.20;99.90;;;;;;4975071;28;20041;-73
2021/09/28 09:00:27;;;;;;;0.20;0.20;;;16.00;99.90;;;;;;4992359;28;20105;-72
2021/09/28 09:02:53;;;;;;;0.10;0.10;;;16.10;99.90;;;;;;4974951;28;20027;-73
2021/09/28 09:05:20;;;;;;;1.13;1.02;;;16.30;99.90;;;;;;4974566;28;20031;-73
2021/09/28 09:08:06;;;;;;;0.20;0.15;;;16.30;99.90;;;;;;4972774;28;20034;-73
2021/09/28 09:10:34;;;;;;;0.10;0.10;;;16.20;99.90;;;;;;4992350;28;20032;-73
2021/09/28 09:13:00;;;;;;;0.10;0.10;;;16.30;99.90;;;;;;4975121;28;20034;-72
2021/09/28 09:15:27;;;;;;;0.15;0.15;;;16.20;99.90;;;;;;4974370;28;20038;-72
2021/09/28 09:17:55;;;;;;;0.20;0.20;;;16.30;99.90;;;;;;4992165;28;20438;-73
2021/09/28 09:20:28;;;;;;;0.10;0.10;;;16.30;99.90;;;;;;4992359;28;20478;-72
2021/09/28 09:23:11;;;;;;;0.10;0.10;;;16.40;99.90;;;;;;4992374;28;20034;-73
2021/09/28 09:25:37;;;;;;;0.10;0.10;;;16.30;99.90;;;;;;4991940;28;20041;-73
2021/09/28 09:28:23;;;;;;;0.10;0.10;;;16.20;99.90;;;;;;4992126;28;20035;-72
2021/09/28 09:30:51;;;;;;;0.10;0.10;;;16.30;99.90;;;;;;4958417;28;20030;-73
2021/09/28 09:33:23;;;;;;;0.13;0.13;;;16.60;99.90;;;;;;5017519;23;20042;-89
2021/09/28 09:35:57;;;;;;;0.10;0.10;;;16.50;99.90;;;;;;4980247;28;20070;-90
2021/09/28 09:38:23;;;;;;;0.10;0.10;;;16.60;99.90;;;;;;4980420;28;20054;-90
2021/09/28 09:40:49;;;;;;;0.10;0.10;;;16.70;99.90;;;;;;4982333;28;20502;-88
2021/09/28 09:43:17;;;;;;;0.10;0.10;;;17.00;99.90;;;;;;4976437;28;20023;-89
2021/09/28 09:45:43;;;;;;;0.10;0.10;;;16.90;99.90;;;;;;4961082;28;20121;-90
2021/09/28 09:48:23;;;;;;;0.20;0.20;;;16.90;99.90;;;;;;4960373;28;20112;-89
2021/09/28 09:51:01;;;;;;;0.10;0.10;;;16.90;99.90;;;;;;4960086;28;20026;-90
2021/09/28 09:53:27;;;;;;;0.10;0.10;;;16.80;99.90;;;;;;4959800;28;20376;-90
2021/09/28 09:55:53;;;;;;;0.10;0.10;;;16.90;99.90;;;;;;4961599;28;20038;-90
2021/09/28 09:58:20;;;;;;;0.20;0.20;;;17.00;99.90;;;;;;4964275;28;20026;-90
2021/09/28 10:00:49;;;;;;;0.13;0.13;;;17.10;99.90;;;;;;4963757;28;20034;-90
2021/09/28 10:03:15;;;;;;;0.10;0.10;;;17.30;99.90;;;;;;4963582;28;20026;-90
2021/09/28 10:05:41;;;;;;;0.10;0.10;;;17.50;99.90;;;;;;4963630;28;20122;-90
2021/09/28 10:08:11;;;;;;;0.10;0.10;;;17.50;99.90;;;;;;4964708;28;20154;-90
2021/09/28 10:10:38;;;;;;;0.10;0.10;;;17.70;99.90;;;;;;4963524;28;20129;-90
2021/09/28 10:13:05;;;;;;;0.10;0.10;;;17.90;99.90;;;;;;4964572;28;20041;-90
2021/09/28 10:15:31;;;;;;;0.13;0.13;;;18.20;99.90;;;;;;4963369;28;20034;-91
2021/09/28 10:17:57;;;;;;;0.10;0.10;;;18.40;99.90;;;;;;4963470;28;20052;-90
2021/09/28 10:20:22;;;;;;;0.10;0.10;;;18.30;99.90;;;;;;4963356;28;20018;-90
2021/09/28 10:22:55;;;;;;;0.22;0.22;;;18.50;99.90;;;;;;4963220;28;20045;-90
2021/09/28 10:25:20;;;;;;;0.65;0.65;;;18.40;99.90;;;;;;4962704;28;20034;-90
2021/09/28 10:27:55;;;;;;;0.47;0.47;;;18.40;99.90;;;;;;4945833;28;20042;-90
2021/09/28 10:30:33;;;;;;;0.13;0.13;;;19.20;99.90;;;;;;4945735;28;20027;-90
2021/09/28 10:33:03;;;;;;;0.10;0.10;;;19.00;99.90;;;;;;4965230;28;20031;-90
2021/09/28 10:35:29;;;;;;;0.20;0.20;;;19.20;99.90;;;;;;4956953;28;20033;-91
2021/09/28 10:37:59;;;;;;;0.20;0.20;;;20.00;99.90;;;;;;4947985;28;20038;-92
2021/09/28 10:40:35;;;;;;;0.00;0.00;;;20.70;99.90;;;;;;4944300;28;20047;-91
2021/09/28 10:43:23;;;;;;;0.10;0.10;;;20.40;99.90;;;;;;4959901;28;20038;-91
2021/09/28 10:46:05;;;;;;;0.10;0.10;;;21.00;99.90;;;;;;4944933;28;20054;-91
2021/09/28 10:48:35;;;;;;;0.10;0.10;;;21.30;99.90;;;;;;4945704;28;20034;-91
2021/09/28 10:51:07;;;;;;;0.63;0.63;;;21.90;99.40;;;;;;4943923;28;20547;-91
2021/09/28 10:53:40;;;;;;;0.40;0.40;;;21.80;96.90;;;;;;4940044;29;20320;-91
2021/09/28 10:56:11;;;;;;;2.72;1.10;;;22.30;95.70;;;;;;4924296;29;20058;-91
2021/09/28 10:58:52;;;;;;;0.00;0.00;;;22.90;92.10;;;;;;4932179;28;20027;-91
2021/09/28 11:01:19;;;;;;;0.00;0.00;;;23.30;90.90;;;;;;4975287;28;20034;-91
2021/09/28 11:04:22;;;;;;;0.10;0.10;;;23.60;89.60;;;;;;4944683;28;20027;-91
2021/09/28 11:06:58;;;;;;;0.13;0.13;;;23.70;87.80;;;;;;4975096;28;20019;-92
2021/09/28 11:09:41;;;;;;;0.40;0.40;;;23.60;84.90;;;;;;4943969;28;20487;-92
2021/09/28 11:12:07;;;;;;;0.10;0.10;;;23.70;84.50;;;;;;4946064;28;20027;-91
2021/09/28 11:14:37;;;;;;;0.17;0.17;;;23.30;82.60;;;;;;4943629;28;20027;-91
2021/09/28 11:17:11;;;;;;;0.00;0.00;;;23.80;81.30;;;;;;4944002;28;20023;-91
2021/09/28 11:19:38;;;;;;;0.00;0.00;;;24.10;79.50;;;;;;4943626;28;20018;-91
2021/09/28 11:22:06;;;;;;;1.10;0.08;;;24.30;78.90;;;;;;4943525;28;20484;-91
2021/09/28 11:24:32;;;;;;;0.10;0.10;;;24.50;78.80;;;;;;4943150;28;20594;-91
2021/09/28 11:27:04;;;;;;;0.00;0.00;;;24.70;77.40;;;;;;4943779;28;20031;-91
2021/09/28 11:29:52;;;;;;;0.10;0.10;;;25.00;73.60;;;;;;4947743;28;20026;-91
2021/09/28 11:32:33;;;;;;;0.80;0.70;;;24.90;74.40;;;;;;4964401;28;20082;-92
2021/09/28 11:34:59;;;;;;;0.03;0.03;;;24.40;73.80;;;;;;4944644;28;20118;-92
2021/09/28 11:37:25;;;;;;;0.10;0.10;;;24.80;75.20;;;;;;4943718;28;20484;-92
2021/09/28 11:39:50;;;;;;;1.17;0.52;;;25.80;69.90;;;;;;4943704;28;20113;-91
2021/09/28 11:42:16;;;;;;;8.77;0.65;;;25.70;68.50;;;;;;4943314;28;20110;-91
2021/09/28 11:44:47;;;;;;;0.38;0.38;;;25.30;70.10;;;;;;4943119;28;20034;-91
2021/09/28 11:47:15;;;;;;;0.15;0.15;;;25.40;70.00;;;;;;4942789;28;20729;-91
2021/09/28 11:49:46;;;;;;;0.75;0.28;;;25.10;69.60;;;;;;4942603;28;20496;-91
2021/09/28 11:52:12;;;;;;;0.00;0.00;;;25.60;68.90;;;;;;4942656;28;20046;-91
2021/09/28 11:54:46;;;;;;;0.10;0.10;;;25.90;66.70;;;;;;4942369;28;20031;-91
2021/09/28 11:57:13;;;;;;;0.00;0.00;;;25.80;66.60;;;;;;4942951;28;20399;-91
2021/09/28 11:59:40;;;;;;;0.00;0.00;;;25.10;68.70;;;;;;4943772;28;20023;-91
2021/09/28 12:02:05;;;;;;;0.30;0.30;;;25.20;69.80;;;;;;4945258;28;20042;-91
2021/09/28 12:04:33;;;;;;;1.15;0.75;;;25.00;70.00;;;;;;4942422;28;20018;-91
2021/09/28 12:09:39;;;;;;;0.00;0.00;;;24.40;71.70;;;;;;4990055;28;20018;-90
2021/09/28 12:12:06;;;;;;;0.32;0.25;;;24.40;73.50;;;;;;4974061;28;20027;-90
2021/09/28 12:14:34;;;;;;;1.90;0.30;;;24.70;72.70;;;;;;4973756;28;20026;-91
2021/09/28 12:17:20;;;;;;;0.25;0.25;;;24.70;72.50;;;;;;4973845;28;20118;-90
2021/09/28 12:19:48;;;;;;;0.43;0.10;;;23.80;75.20;;;;;;4941827;28;20050;-90
2021/09/28 12:22:30;;;;;;;0.08;0.08;;;23.20;75.40;;;;;;4941907;28;20030;-90
2021/09/28 12:24:57;;;;;;;0.00;0.00;;;23.10;76.30;;;;;;4942343;28;20027;-90
2021/09/28 12:27:24;;;;;;;0.10;0.10;;;23.30;75.50;;;;;;4942596;28;20026;-90
2021/09/28 12:29:51;;;;;;;0.20;0.20;;;23.10;74.90;;;;;;4942605;28;20022;-90
2021/09/28 12:32:37;;;;;;;0.00;0.00;;;23.30;75.80;;;;;;4942836;28;20033;-90
2021/09/28 12:35:08;;;;;;;5.78;0.60;;;23.50;74.20;;;;;;4957423;28;20173;-90
2021/09/28 12:37:50;;;;;;;0.10;0.10;;;23.20;75.40;;;;;;4942166;28;20027;-90
2021/09/28 12:40:29;;;;;;;0.17;0.17;;;23.10;76.70;;;;;;4950187;28;20027;-91
2021/09/28 12:43:12;;;;;;;0.10;0.10;;;23.20;77.80;;;;;;4956096;28;20105;-90
2021/09/28 12:45:55;;;;;;;2.60;0.52;;;22.90;78.90;;;;;;4943132;28;20117;-90
2021/09/28 12:48:32;;;;;;;0.17;0.17;;;22.50;80.70;;;;;;4942148;28;20065;-90
2021/09/28 12:51:06;;;;;;;0.10;0.10;;;22.40;80.50;;;;;;4941775;28;20027;-90
2021/09/28 12:53:32;;;;;;;0.08;0.08;;;22.20;82.20;;;;;;4941966;28;20027;-90
2021/09/28 12:55:59;;;;;;;0.10;0.10;;;21.90;82.70;;;;;;4973907;28;20022;-90